createdAt,value
2022-09-24T00:01:45.599Z,10.40
2022-09-24T00:04:17.140Z,10.38
2022-09-24T00:06:48.981Z,10.36
2022-09-24T00:09:21.779Z,10.37
2022-09-24T00:11:54.135Z,10.38
2022-09-24T00:14:25.638Z,10.36
2022-09-24T00:16:57.497Z,10.32
2022-09-24T00:19:29.085Z,10.30
2022-09-24T00:22:00.978Z,10.27
2022-09-24T00:25:02.053Z,10.21
2022-09-24T00:27:33.943Z,10.14
2022-09-24T00:30:05.445Z,10.11
2022-09-24T00:32:37.287Z,10.13
2022-09-24T00:35:08.795Z,10.14
2022-09-24T00:37:40.777Z,10.12
2022-09-24T00:40:13.053Z,10.10
2022-09-24T00:42:44.894Z,10.08
2022-09-24T00:45:16.413Z,10.04
2022-09-24T00:47:48.594Z,10.01
2022-09-24T00:50:20.219Z,10.03
2022-09-24T00:52:52.424Z,10.05
2022-09-24T00:55:24.566Z,10.02
2022-09-24T00:57:56.668Z,10.03
2022-09-24T01:00:28.746Z,10.02
2022-09-24T01:03:00.301Z,9.98
2022-09-24T01:05:31.816Z,9.96
2022-09-24T01:08:04.070Z,9.95
2022-09-24T01:11:02.185Z,8.36
2022-09-24T01:13:33.679Z,9.96
2022-09-24T01:16:05.595Z,9.98
2022-09-24T01:18:37.193Z,9.99
2022-09-24T01:21:09.121Z,10.00
2022-09-24T01:23:43.829Z,10.02
2022-09-24T01:26:20.311Z,10.02
2022-09-24T01:28:52.791Z,10.07
2022-09-24T01:31:24.668Z,10.08
2022-09-24T01:33:56.212Z,10.11
2022-09-24T01:36:28.155Z,10.13
2022-09-24T01:38:59.644Z,10.16
2022-09-24T01:41:31.462Z,10.16
2022-09-24T01:44:05.064Z,10.17
2022-09-24T01:46:37.714Z,10.18
2022-09-24T01:49:09.266Z,10.18
2022-09-24T01:51:42.453Z,10.23
2022-09-24T01:54:13.951Z,10.22
2022-09-24T01:56:45.749Z,10.22
2022-09-24T01:59:17.265Z,10.25
2022-09-24T02:01:50.715Z,10.24
2022-09-24T02:04:22.313Z,10.30
2022-09-24T02:06:53.833Z,10.28
2022-09-24T02:09:25.304Z,10.33
2022-09-24T02:11:57.089Z,10.34
2022-09-24T02:14:29.068Z,10.34
2022-09-24T02:17:00.566Z,10.36
2022-09-24T02:19:32.424Z,10.36
2022-09-24T02:22:04.001Z,10.36
2022-09-24T02:24:35.779Z,10.38
2022-09-24T02:27:07.300Z,10.38
2022-09-24T02:29:39.151Z,10.40
2022-09-24T02:32:10.994Z,10.39
2022-09-24T02:34:42.919Z,10.41
2022-09-24T02:37:14.409Z,10.39
2022-09-24T02:39:46.404Z,10.41
2022-09-24T02:42:17.886Z,8.83
2022-09-24T02:44:49.735Z,10.37
2022-09-24T02:47:21.224Z,10.35
2022-09-24T02:49:53.113Z,10.36
2022-09-24T02:52:24.610Z,10.33
2022-09-24T02:54:56.604Z,10.30
2022-09-24T02:57:28.153Z,10.31
2022-09-24T03:00:00.248Z,10.33
2022-09-24T03:02:31.882Z,10.36
2022-09-24T03:05:03.767Z,10.29
2022-09-24T03:07:35.270Z,10.31
2022-09-24T03:10:07.281Z,10.34
2022-09-24T03:12:38.778Z,10.36
2022-09-24T03:15:10.636Z,10.35
2022-09-24T03:17:42.438Z,10.37
2022-09-24T03:20:14.073Z,8.98
2022-09-24T03:22:45.860Z,10.36
2022-09-24T03:25:17.345Z,10.38
2022-09-24T03:27:49.365Z,10.39
2022-09-24T03:30:39.671Z,10.39
2022-09-24T03:33:11.517Z,10.34
2022-09-24T03:35:43.034Z,10.32
2022-09-24T03:38:14.844Z,10.29
2022-09-24T03:40:46.399Z,10.29
2022-09-24T03:43:18.309Z,10.29
2022-09-24T03:45:49.857Z,10.25
2022-09-24T03:48:21.707Z,10.25
2022-09-24T03:50:53.273Z,10.27
2022-09-24T03:53:25.224Z,10.24
2022-09-24T03:55:56.775Z,10.23
2022-09-24T03:58:29.312Z,10.22
2022-09-24T04:01:00.814Z,10.21
2022-09-24T04:03:32.649Z,10.22
2022-09-24T04:06:04.152Z,10.20
2022-09-24T04:08:36.045Z,10.18
2022-09-24T04:11:07.526Z,10.16
2022-09-24T04:13:39.447Z,10.12
2022-09-24T04:16:10.986Z,10.10
2022-09-24T04:18:42.858Z,10.12
2022-09-24T04:21:14.355Z,10.13
2022-09-24T04:23:46.225Z,10.09
2022-09-24T04:26:17.750Z,10.09
2022-09-24T04:28:50.785Z,10.11
2022-09-24T04:31:22.710Z,10.12
2022-09-24T04:33:54.536Z,10.08
2022-09-24T04:36:26.028Z,10.09
2022-09-24T04:38:57.872Z,10.01
2022-09-24T04:41:29.369Z,10.05
2022-09-24T04:44:01.303Z,10.03
2022-09-24T04:46:35.976Z,10.07
2022-09-24T04:49:09.575Z,10.05
2022-09-24T04:51:41.139Z,10.07
2022-09-24T04:54:13.066Z,10.08
2022-09-24T04:56:44.551Z,10.09
2022-09-24T04:59:16.398Z,10.03
2022-09-24T05:01:48.028Z,10.07
2022-09-24T05:04:20.167Z,10.12
2022-09-24T05:06:51.637Z,10.13
2022-09-24T05:09:23.574Z,10.17
2022-09-24T05:11:55.067Z,10.23
2022-09-24T05:14:26.902Z,10.29
2022-09-24T05:16:58.413Z,10.30
2022-09-24T05:19:30.328Z,10.31
2022-09-24T05:22:01.897Z,10.33
2022-09-24T05:24:33.737Z,10.30
2022-09-24T05:27:11.378Z,10.38
2022-09-24T05:29:43.714Z,10.40
2022-09-24T05:32:18.291Z,10.50
2022-09-24T05:34:51.006Z,10.53
2022-09-24T05:37:22.876Z,10.59
2022-09-24T05:39:54.823Z,10.67
2022-09-24T05:42:26.332Z,10.75
2022-09-24T05:44:57.827Z,10.82
2022-09-24T05:47:29.711Z,10.86
2022-09-24T05:50:01.210Z,10.95
2022-09-24T05:52:33.030Z,11.01
2022-09-24T05:55:04.584Z,11.07
2022-09-24T05:57:36.136Z,11.06
2022-09-24T06:00:07.653Z,11.10
2022-09-24T06:02:39.499Z,11.18
2022-09-24T06:05:11.019Z,11.22
2022-09-24T06:07:43.023Z,11.28
2022-09-24T06:10:14.599Z,11.32
2022-09-24T06:12:47.343Z,11.37
2022-09-24T06:15:19.354Z,11.39
2022-09-24T06:17:51.169Z,11.43
2022-09-24T06:20:22.715Z,11.50
2022-09-24T06:22:54.655Z,11.54
2022-09-24T06:25:26.183Z,11.64
2022-09-24T06:28:00.927Z,11.70
2022-09-24T06:30:32.500Z,11.70
2022-09-24T06:33:05.383Z,11.70
2022-09-24T06:35:36.915Z,11.76
2022-09-24T06:38:08.737Z,11.92
2022-09-24T06:40:40.629Z,11.92
2022-09-24T06:43:12.573Z,12.03
2022-09-24T06:45:44.061Z,12.15
2022-09-24T06:48:15.656Z,12.40
2022-09-24T06:50:47.636Z,12.71
2022-09-24T06:53:19.508Z,12.83
2022-09-24T06:55:51.092Z,12.84
2022-09-24T06:58:24.011Z,12.84
2022-09-24T07:00:58.314Z,12.77
2022-09-24T07:03:30.256Z,12.76
2022-09-24T07:06:01.781Z,12.81
2022-09-24T07:08:33.600Z,12.68
2022-09-24T07:11:05.182Z,12.73
2022-09-24T07:13:37.041Z,12.84
2022-09-24T07:16:08.573Z,12.84
2022-09-24T07:18:40.097Z,12.88
2022-09-24T07:21:11.643Z,12.97
2022-09-24T07:23:43.689Z,13.00
2022-09-24T07:26:15.167Z,13.00
2022-09-24T07:28:46.997Z,13.07
2022-09-24T07:31:18.582Z,13.26
2022-09-24T07:33:50.454Z,13.33
2022-09-24T07:36:23.101Z,13.29
2022-09-24T07:38:55.209Z,13.18
2022-09-24T07:41:26.704Z,13.11
2022-09-24T07:43:58.516Z,13.19
2022-09-24T07:46:30.293Z,13.29
2022-09-24T07:49:02.196Z,13.36
2022-09-24T07:51:33.960Z,13.29
2022-09-24T07:54:06.358Z,13.48
2022-09-24T07:56:37.864Z,13.61
2022-09-24T07:59:11.520Z,13.88
2022-09-24T08:01:43.088Z,13.82
2022-09-24T08:04:15.086Z,13.88
2022-09-24T08:06:47.645Z,14.23
2022-09-24T08:09:19.777Z,14.24
2022-09-24T08:11:51.268Z,14.34
2022-09-24T08:14:23.142Z,14.43
2022-09-24T08:16:54.640Z,14.65
2022-09-24T08:19:28.607Z,14.79
2022-09-24T08:22:00.187Z,14.88
2022-09-24T08:24:32.224Z,14.98
2022-09-24T08:27:03.773Z,15.19
2022-09-24T08:29:35.697Z,15.49
2022-09-24T08:32:07.595Z,15.66
2022-09-24T08:34:40.975Z,15.68
2022-09-24T08:37:13.446Z,16.08
2022-09-24T08:39:45.299Z,16.36
2022-09-24T08:42:16.791Z,16.37
2022-09-24T08:45:07.528Z,17.08
2022-09-24T08:47:39.469Z,17.65
2022-09-24T08:50:10.968Z,17.48
2022-09-24T08:52:42.721Z,17.43
2022-09-24T08:55:14.234Z,17.56
2022-09-24T08:57:46.280Z,18.31
2022-09-24T09:00:18.037Z,18.13
2022-09-24T09:02:49.942Z,17.91
2022-09-24T09:05:27.361Z,18.00
2022-09-24T09:07:59.338Z,17.62
2022-09-24T09:10:31.029Z,17.86
2022-09-24T09:13:02.863Z,17.79
2022-09-24T09:15:34.353Z,17.79
2022-09-24T09:18:06.419Z,17.38
2022-09-24T09:20:38.659Z,17.52
2022-09-24T09:23:10.482Z,17.26
2022-09-24T09:25:42.434Z,17.17
2022-09-24T09:28:15.572Z,17.01
2022-09-24T09:30:47.375Z,17.06
2022-09-24T09:33:19.241Z,16.99
2022-09-24T09:35:50.795Z,16.89
2022-09-24T09:38:23.655Z,16.82
2022-09-24T09:40:55.210Z,16.94
2022-09-24T09:43:27.168Z,17.14
2022-09-24T09:45:59.282Z,17.21
2022-09-24T09:48:31.302Z,17.30
2022-09-24T09:51:06.160Z,17.45
2022-09-24T09:53:38.293Z,17.42
2022-09-24T09:56:09.932Z,17.47
2022-09-24T09:58:41.809Z,17.48
2022-09-24T10:01:13.321Z,17.54
2022-09-24T10:03:45.237Z,17.47
2022-09-24T10:06:16.779Z,17.35
2022-09-24T10:08:48.650Z,17.17
2022-09-24T10:11:20.168Z,17.15
2022-09-24T10:13:52.071Z,17.64
2022-09-24T10:16:23.606Z,17.58
2022-09-24T10:18:55.498Z,17.86
2022-09-24T10:21:28.367Z,17.53
2022-09-24T10:24:00.313Z,17.63
2022-09-24T10:26:31.813Z,17.61
2022-09-24T10:29:30.022Z,17.47
2022-09-24T10:32:01.526Z,17.89
2022-09-24T10:34:33.045Z,17.97
2022-09-24T10:37:10.214Z,18.11
2022-09-24T10:39:42.842Z,18.17
2022-09-24T10:42:14.334Z,18.38
2022-09-24T10:44:49.333Z,18.50
2022-09-24T10:47:24.528Z,18.57
2022-09-24T10:49:56.069Z,18.50
2022-09-24T10:52:27.895Z,19.10
2022-09-24T10:54:59.388Z,19.50
2022-09-24T10:57:31.533Z,19.88
2022-09-24T11:00:03.058Z,19.81
2022-09-24T11:02:34.954Z,19.73
2022-09-24T11:05:06.523Z,19.71
2022-09-24T11:07:38.620Z,19.96
2022-09-24T11:10:10.437Z,19.66
2022-09-24T11:12:43.143Z,19.98
2022-09-24T11:15:15.003Z,20.36
2022-09-24T11:17:46.921Z,20.53
2022-09-24T11:20:18.410Z,20.84
2022-09-24T11:22:50.504Z,21.15
2022-09-24T11:25:22.003Z,20.43
2022-09-24T11:27:53.803Z,20.59
2022-09-24T11:30:25.365Z,20.40
2022-09-24T11:32:57.214Z,20.10
2022-09-24T11:35:28.707Z,20.50
2022-09-24T11:38:01.418Z,20.48
2022-09-24T11:40:32.981Z,20.78
2022-09-24T11:43:05.446Z,20.80
2022-09-24T11:45:36.944Z,20.74
2022-09-24T11:48:08.752Z,20.26
2022-09-24T11:50:44.976Z,20.49
2022-09-24T11:53:19.188Z,20.63
2022-09-24T11:55:53.563Z,20.83
2022-09-24T11:58:25.367Z,20.30
2022-09-24T12:00:56.861Z,20.15
2022-09-24T12:03:28.431Z,18.27
2022-09-24T12:06:00.839Z,20.05
2022-09-24T12:08:32.788Z,19.97
2022-09-24T12:11:04.292Z,19.79
2022-09-24T12:13:42.977Z,19.68
2022-09-24T12:16:14.705Z,19.94
2022-09-24T12:18:48.278Z,20.31
2022-09-24T12:21:19.806Z,20.29
2022-09-24T12:23:51.684Z,20.17
2022-09-24T12:26:23.376Z,20.33
2022-09-24T12:29:14.165Z,20.38
2022-09-24T12:32:04.183Z,20.60
2022-09-24T12:34:36.277Z,20.42
2022-09-24T12:37:07.762Z,20.47
2022-09-24T12:39:39.283Z,20.49
2022-09-24T12:42:10.838Z,20.66
2022-09-24T12:44:42.660Z,20.81
2022-09-24T12:47:14.367Z,20.86
2022-09-24T12:49:48.154Z,20.89
2022-09-24T12:52:20.116Z,20.76
2022-09-24T12:54:51.599Z,20.89
2022-09-24T12:57:25.860Z,20.87
2022-09-24T12:59:58.004Z,20.98
2022-09-24T13:02:30.130Z,21.10
2022-09-24T13:05:01.756Z,21.20
2022-09-24T13:07:33.663Z,21.29
2022-09-24T13:10:05.162Z,21.26
2022-09-24T13:12:37.035Z,21.14
2022-09-24T13:15:09.328Z,21.10
2022-09-24T13:17:41.191Z,21.17
2022-09-24T13:20:12.718Z,21.06
2022-09-24T13:22:44.503Z,21.07
2022-09-24T13:25:16.063Z,20.85
2022-09-24T13:27:47.968Z,20.80
2022-09-24T13:30:19.535Z,20.51
2022-09-24T13:32:51.161Z,20.60
2022-09-24T13:35:23.737Z,20.88
2022-09-24T13:37:55.438Z,20.91
2022-09-24T13:40:27.033Z,21.12
2022-09-24T13:42:59.029Z,21.26
2022-09-24T13:45:30.536Z,21.14
2022-09-24T13:48:02.525Z,20.90
2022-09-24T13:50:34.136Z,20.99
2022-09-24T13:53:07.733Z,20.82
2022-09-24T13:55:39.589Z,20.84
2022-09-24T13:58:11.579Z,20.65
2022-09-24T14:00:43.153Z,20.65
2022-09-24T14:03:15.050Z,20.77
2022-09-24T14:05:47.022Z,20.61
2022-09-24T14:08:19.029Z,20.69
2022-09-24T14:10:51.080Z,20.46
2022-09-24T14:13:23.033Z,20.43
2022-09-24T14:15:54.693Z,20.32
2022-09-24T14:18:26.902Z,20.27
2022-09-24T14:20:58.396Z,20.06
2022-09-24T14:23:30.369Z,19.87
2022-09-24T14:26:01.888Z,19.65
2022-09-24T14:28:33.727Z,19.70
2022-09-24T14:31:05.283Z,19.75
2022-09-24T14:33:37.192Z,19.63
2022-09-24T14:36:08.694Z,19.46
2022-09-24T14:38:40.496Z,19.31
2022-09-24T14:41:11.969Z,19.15
2022-09-24T14:43:43.911Z,19.10
2022-09-24T14:46:15.446Z,19.08
2022-09-24T14:48:47.328Z,18.86
2022-09-24T14:51:18.821Z,18.67
2022-09-24T14:53:50.334Z,18.59
2022-09-24T14:56:21.854Z,18.49
2022-09-24T14:58:53.826Z,18.36
2022-09-24T15:01:25.446Z,18.26
2022-09-24T15:03:57.274Z,18.20
2022-09-24T15:06:28.799Z,18.17
2022-09-24T15:09:00.976Z,18.08
2022-09-24T15:11:34.128Z,17.99
2022-09-24T15:14:06.024Z,17.94
2022-09-24T15:16:37.567Z,17.87
2022-09-24T15:19:09.367Z,17.82
2022-09-24T15:21:41.315Z,17.72
2022-09-24T15:24:12.842Z,17.63
2022-09-24T15:26:44.765Z,17.63
2022-09-24T15:29:16.244Z,17.77
2022-09-24T15:31:48.166Z,17.73
2022-09-24T15:34:20.507Z,17.52
2022-09-24T15:36:52.460Z,17.57
2022-09-24T15:39:23.938Z,17.53
2022-09-24T15:41:55.488Z,17.49
2022-09-24T15:44:32.879Z,17.52
2022-09-24T15:47:05.830Z,17.49
2022-09-24T15:49:37.349Z,17.44
2022-09-24T15:52:08.863Z,17.32
2022-09-24T15:54:40.393Z,17.34
2022-09-24T15:57:12.411Z,17.27
2022-09-24T15:59:43.959Z,17.32
2022-09-24T16:02:15.801Z,17.33
2022-09-24T16:04:47.347Z,17.30
2022-09-24T16:07:18.886Z,17.22
2022-09-24T16:09:50.425Z,17.08
2022-09-24T16:12:22.239Z,17.08
2022-09-24T16:14:58.825Z,17.05
2022-09-24T16:17:30.808Z,16.98
2022-09-24T16:20:02.366Z,16.97
2022-09-24T16:22:34.249Z,16.80
2022-09-24T16:25:05.744Z,16.67
2022-09-24T16:27:37.938Z,16.56
2022-09-24T16:30:09.414Z,16.45
2022-09-24T16:32:41.269Z,16.39
2022-09-24T16:35:13.454Z,16.33
2022-09-24T16:37:45.323Z,16.21
2022-09-24T16:40:16.894Z,16.13
2022-09-24T16:42:48.748Z,16.01
2022-09-24T16:45:20.322Z,15.89
2022-09-24T16:47:52.028Z,15.83
2022-09-24T16:50:23.789Z,15.73
2022-09-24T16:52:55.764Z,15.62
2022-09-24T16:55:27.326Z,15.53
2022-09-24T16:57:58.922Z,15.50
2022-09-24T17:00:30.465Z,15.43
2022-09-24T17:03:02.378Z,15.39
2022-09-24T17:05:34.123Z,15.33
2022-09-24T17:08:05.632Z,15.29
2022-09-24T17:10:41.351Z,15.24
2022-09-24T17:13:16.122Z,15.19
2022-09-24T17:15:47.639Z,15.18
2022-09-24T17:18:19.528Z,15.18
2022-09-24T17:20:51.012Z,15.16
2022-09-24T17:23:22.864Z,15.16
2022-09-24T17:25:54.381Z,15.18
2022-09-24T17:28:26.233Z,15.17
2022-09-24T17:30:57.849Z,15.16
2022-09-24T17:33:42.858Z,15.14
2022-09-24T17:36:15.797Z,15.14
2022-09-24T17:38:47.695Z,15.10
2022-09-24T17:41:19.250Z,15.09
2022-09-24T17:43:51.672Z,15.13
2022-09-24T17:46:23.303Z,15.10
2022-09-24T17:48:54.882Z,15.12
2022-09-24T17:51:26.771Z,14.67
2022-09-24T17:53:58.336Z,15.09
2022-09-24T17:56:30.331Z,15.06
2022-09-24T17:59:01.880Z,15.04
2022-09-24T18:01:35.616Z,15.03
2022-09-24T18:04:07.172Z,14.98
2022-09-24T18:06:39.712Z,14.98
2022-09-24T18:09:11.627Z,14.94
2022-09-24T18:11:43.252Z,14.93
2022-09-24T18:14:14.782Z,14.92
2022-09-24T18:16:46.325Z,14.85
2022-09-24T18:19:17.874Z,14.83
2022-09-24T18:21:50.133Z,14.80
2022-09-24T18:24:22.914Z,14.78
2022-09-24T18:26:54.783Z,14.78
2022-09-24T18:29:26.251Z,14.79
2022-09-24T18:31:58.059Z,14.76
2022-09-24T18:34:29.852Z,14.74
2022-09-24T18:37:01.761Z,14.73
2022-09-24T18:39:33.309Z,14.66
2022-09-24T18:42:04.850Z,14.62
2022-09-24T18:44:36.326Z,14.62
2022-09-24T18:47:08.149Z,14.62
2022-09-24T18:49:39.638Z,14.58
2022-09-24T18:52:11.471Z,14.52
2022-09-24T18:54:42.941Z,14.51
2022-09-24T18:57:14.762Z,14.50
2022-09-24T18:59:46.917Z,14.49
2022-09-24T19:02:18.977Z,14.48
2022-09-24T19:04:50.546Z,14.48
2022-09-24T19:07:22.295Z,14.48
2022-09-24T19:09:54.029Z,14.46
2022-09-24T19:12:26.103Z,14.43
2022-09-24T19:14:58.672Z,14.48
2022-09-24T19:17:30.483Z,14.44
2022-09-24T19:20:01.960Z,14.43
2022-09-24T19:22:34.130Z,14.44
2022-09-24T19:25:05.610Z,14.48
2022-09-24T19:27:37.419Z,14.44
2022-09-24T19:30:08.890Z,14.40
2022-09-24T19:32:41.100Z,14.31
2022-09-24T19:35:12.756Z,14.30
2022-09-24T19:37:44.546Z,14.27
2022-09-24T19:40:16.285Z,14.18
2022-09-24T19:42:48.483Z,14.13
2022-09-24T19:45:19.982Z,14.12
2022-09-24T19:47:52.245Z,14.11
2022-09-24T19:50:23.766Z,14.08
2022-09-24T19:52:56.230Z,14.07
2022-09-24T19:55:28.867Z,14.04
2022-09-24T19:58:01.775Z,14.04
2022-09-24T20:00:33.515Z,13.95
2022-09-24T20:03:05.425Z,13.97
2022-09-24T20:05:37.155Z,13.92
2022-09-24T20:08:11.500Z,13.89
2022-09-24T20:10:44.605Z,13.86
2022-09-24T20:13:17.345Z,13.85
2022-09-24T20:15:48.923Z,13.84
2022-09-24T20:18:20.969Z,13.87
2022-09-24T20:20:55.549Z,13.81
2022-09-24T20:23:27.469Z,13.79
2022-09-24T20:26:17.691Z,13.75
2022-09-24T20:28:49.165Z,13.74
2022-09-24T20:31:24.148Z,13.72
2022-09-24T20:33:55.738Z,13.71
2022-09-24T20:36:27.561Z,13.72
2022-09-24T20:38:59.592Z,13.74
2022-09-24T20:41:31.124Z,13.75
2022-09-24T20:44:02.712Z,13.77
2022-09-24T20:46:34.650Z,13.76
2022-09-24T20:49:06.148Z,13.73
2022-09-24T20:51:39.116Z,13.74
2022-09-24T20:54:10.652Z,13.70
2022-09-24T20:56:42.578Z,13.72
2022-09-24T20:59:14.092Z,13.70
2022-09-24T21:01:46.137Z,13.71
2022-09-24T21:04:19.785Z,13.70
2022-09-24T21:06:51.785Z,13.65
2022-09-24T21:09:23.299Z,13.69
2022-09-24T21:11:55.146Z,13.72
2022-09-24T21:14:28.875Z,13.70
2022-09-24T21:17:00.730Z,13.72
2022-09-24T21:19:36.156Z,13.67
2022-09-24T21:22:07.985Z,13.65
2022-09-24T21:24:41.061Z,13.64
2022-09-24T21:27:12.573Z,13.66
2022-09-24T21:29:44.057Z,13.65
2022-09-24T21:32:17.783Z,13.64
2022-09-24T21:34:49.273Z,13.63
2022-09-24T21:37:21.239Z,13.62
2022-09-24T21:39:52.715Z,13.63
2022-09-24T21:42:28.127Z,13.60
2022-09-24T21:45:00.195Z,13.59
2022-09-24T21:47:31.967Z,13.52
2022-09-24T21:50:03.558Z,13.50
2022-09-24T21:52:35.422Z,13.48
2022-09-24T21:55:06.918Z,13.49
2022-09-24T21:57:38.861Z,13.48
2022-09-24T22:00:11.112Z,13.47
2022-09-24T22:02:45.581Z,13.46
2022-09-24T22:05:19.660Z,13.49
2022-09-24T22:07:51.853Z,12.43
2022-09-24T22:10:23.833Z,13.50
2022-09-24T22:12:56.538Z,13.50
2022-09-24T22:15:28.021Z,13.53
2022-09-24T22:18:01.235Z,13.57
2022-09-24T22:20:32.750Z,13.54
2022-09-24T22:23:04.507Z,13.52
2022-09-24T22:25:35.997Z,13.48
2022-09-24T22:28:07.848Z,13.46
2022-09-24T22:30:39.675Z,13.45
2022-09-24T22:33:31.465Z,13.46
2022-09-24T22:36:06.469Z,13.45
2022-09-24T22:38:38.262Z,13.48
2022-09-24T22:41:11.068Z,13.42
2022-09-24T22:43:42.951Z,13.44
2022-09-24T22:46:14.504Z,13.40
2022-09-24T22:48:47.672Z,13.31
2022-09-24T22:51:19.648Z,13.34
2022-09-24T22:53:51.119Z,13.33
2022-09-24T22:56:22.927Z,13.35
2022-09-24T22:58:54.411Z,13.34
2022-09-24T23:01:25.942Z,13.38
2022-09-24T23:03:57.533Z,13.34
2022-09-24T23:06:30.624Z,13.32
2022-09-24T23:09:02.116Z,13.35
2022-09-24T23:11:33.995Z,13.37
2022-09-24T23:14:05.601Z,13.36
2022-09-24T23:16:37.556Z,13.35
2022-09-24T23:19:09.097Z,13.30
2022-09-24T23:21:41.889Z,13.27
2022-09-24T23:24:13.450Z,13.29
2022-09-24T23:26:45.294Z,13.34
2022-09-24T23:29:16.793Z,13.32
2022-09-24T23:31:48.298Z,13.31
2022-09-24T23:34:20.283Z,11.84
2022-09-24T23:36:52.073Z,13.30
2022-09-24T23:39:23.540Z,13.33
2022-09-24T23:41:55.777Z,13.31
2022-09-24T23:44:27.292Z,13.35
2022-09-24T23:46:59.104Z,13.30
2022-09-24T23:49:30.872Z,12.94
2022-09-24T23:52:02.504Z,13.27
2022-09-24T23:54:36.440Z,13.24
2022-09-24T23:57:08.407Z,13.24
2022-09-24T23:59:39.954Z,13.24
